John P. Tully — CG2958 — position and weather

sailwx.info

Track history (hours):
 
Tides and Currents Weather Stations Pressure Air Temp Water Temp Dewpoint Dewpoint Depression Visibility Wind Speed Wind Dir Waves Ship Positions

Oceanographic research ship John P. Tully (Canada)

Detailed information on ship capabilities available from University of Delaware's Ocean Information Center.

Last reported at 2017-Aug-18 17:00 UTC. Time now 2017-Aug-18 18:20 UTC.
Position N 48°42' W 127°42'.

Length 68.9 m; beam 14.5 m; draft 4.5 m.

MMSI: 316114000.

Wind from 300 at 14 knots

Barometer 1022.6 mb
Air temperature 16.3 ° C
Dewpoint 14.6 ° C

Date/timePositionNaut miles runAvg speedWind from/ knotsBaromVisibWave heightAir tempDewpointWater temp
2017-Aug-18 17:00N 48°42' W 127°42'0 0.0 300 / 141022.6 16.314.6
2017-Aug-18 16:00N 48°42' W 127°42'8 7.9 300 / 121022.6 16.014.9
2017-Aug-18 15:00N 48°42' W 127°30'8 7.9 300 / 101022.1 16.215.8
2017-Aug-18 14:00N 48°42' W 127°18'4 4.0 280 / 121021.9 16.416.0
2017-Aug-18 13:00N 48°42' W 127°12'0 0.0 270 / 111022.0 16.315.9
2017-Aug-18 12:00N 48°42' W 127°12'8 7.9 250 / 121022.1 16.316.0
2017-Aug-18 11:00N 48°42' W 127°00'8 7.9 270 / 101022.1 15.915.6
2017-Aug-18 10:00N 48°42' W 126°48'4 4.0 260 / 81022.1 15.815.5
2017-Aug-18 09:00N 48°42' W 126°42'6 6.0 250 / 91022.6 15.715.4
2017-Aug-18 08:00N 48°36' W 126°42'0 0.0 220 / 81023.1 15.715.4
2017-Aug-18 07:00N 48°36' W 126°42'0 0.0 200 / 91023.1 15.415.1
2017-Aug-18 06:00N 48°36' W 126°42'6 6.0 200 / 81023.5 15.315.0
2017-Aug-18 05:00N 48°42' W 126°42'0 0.0 210 / 51024.1 15.114.7
2017-Aug-18 04:00N 48°42' W 126°42'0 0.0 250 / 71023.9 16.013.6
2017-Aug-18 03:00N 48°42' W 126°42'0 0.0 270 / 91023.9 16.213.9
2017-Aug-18 02:00N 48°42' W 126°42'6 6.0 260 / 71024.2 16.313.0
2017-Aug-18 01:00N 48°36' W 126°42'6 6.0 280 / 71024.2 16.612.6
2017-Aug-18 00:00N 48°42' W 126°42'0 0.0 250 / 51024.9 16.512.9
2017-Aug-17 23:00N 48°42' W 126°42'0 0.0 250 / 31025.1 16.513.4
2017-Aug-17 22:00N 48°42' W 126°42'6 6.0 270 / 41025.2 16.213.6
2017-Aug-17 21:00N 48°36' W 126°42'359.2 270 / 51025.1 16.013.9
2017-Aug-17 20:56N 48°39' W 126°40'3 3.4
2017-Aug-17 20:00N 48°36' W 126°42'515.8 270 / 51024.7 15.513.5
2017-Aug-17 19:42N 48°39' W 126°37'5 7.1
2017-Aug-17 19:00N 48°36' W 126°30'7 9.9 280 / 51024.3 15.113.6
2017-Aug-17 18:18N 48°37' W 126°20'0 0.3
2017-Aug-17 18:00N 48°37' W 126°20'2182.1
2017-Aug-17 18:00N 48°36' W 126°18'2 3.7 290 / 51024.1 15.013.6
2017-Aug-17 17:27N 48°38' W 126°20'243842.7
2017-Aug-17 17:10N 52°26' W 128°27'2431564.8
2017-Aug-17 17:00N 48°37' W 126°18'190.9
2017-Aug-17 17:00N 48°36' W 126°18'2446902.8 300 / 81023.7 14.913.7
2017-Aug-17 16:57N 52°25' W 128°29'244530.5
2017-Aug-17 16:30N 48°37' W 126°12'24114208.8
2017-Aug-17 16:29N 52°20' W 128°31'242514.5
2017-Aug-17 16:00N 48°36' W 126°06'021.1
2017-Aug-17 16:00N 48°36' W 126°06'23811267.3 310 / 71023.4 14.913.9
2017-Aug-17 15:58N 52°16' W 128°26'239516.6
2017-Aug-17 15:30N 48°36' W 126°01'2368323.4
2017-Aug-17 15:29N 52°15' W 128°19'236493.0
2017-Aug-17 15:00N 48°36' W 125°60'4441.9
2017-Aug-17 15:00N 48°36' W 125°54'23431257.4 300 / 91023.2 15.013.8
2017-Aug-17 14:59N 52°14' W 128°11'233488.6
2017-Aug-17 14:30N 48°36' W 126°00'2292479.9
2017-Aug-17 14:25N 52°10' W 128°08'229563.0
2017-Aug-17 14:00N 48°36' W 126°00'226203832.2
2017-Aug-17 14:00N 52°07' W 128°08'227453.4
2017-Aug-17 13:30N 48°36' W 125°59'22311302.5
2017-Aug-17 13:29N 52°05' W 128°02'5 9.4
2017-Aug-17 13:00N 52°04' W 127°55'221159219.7
2017-Aug-17 13:00N 48°36' W 125°56'3 6.2
2017-Aug-17 12:30N 48°36' W 125°52'219157615.0
2017-Aug-17 12:30N 51°60' W 127°56'221442.9
2017-Aug-17 12:00N 48°35' W 125°45'217195513.0
2017-Aug-17 12:00N 51°56' W 127°56'5 9.5
2017-Aug-17 11:31N 51°51' W 127°56'215386523.6
2017-Aug-17 11:30N 48°35' W 125°38'210420.7
2017-Aug-17 11:01N 51°46' W 127°56'212254709.7
2017-Aug-17 11:00N 48°35' W 125°32'1 2.2
2017-Aug-17 10:30N 48°35' W 125°30'208124796.6
2017-Aug-17 10:30N 51°41' W 127°54'210421.9
2017-Aug-17 10:00N 48°34' W 125°24'20541080.0
2017-Aug-17 10:00N 51°36' W 127°53'510.0
2017-Aug-17 09:30N 51°31' W 127°51'20348767.2
2017-Aug-17 09:30N 48°34' W 125°17'199401.6
2017-Aug-17 09:00N 51°26' W 127°51'202242312.8
2017-Aug-17 09:00N 48°33' W 125°10'5 9.7
2017-Aug-17 08:30N 48°32' W 125°03'202725670.0
2017-Aug-17 08:30N 51°22' W 127°53'5 9.1
2017-Aug-17 08:00N 51°17' W 127°53'20122562.9
2017-Aug-17 08:00N 48°32' W 124°56'5 9.4
2017-Aug-17 07:30N 48°31' W 124°50'20011229.4
2017-Aug-17 07:29N 51°12' W 127°53'203422.2
2017-Aug-17 07:00N 48°30' W 124°43'19914585.8
2017-Aug-17 07:00N 51°08' W 127°50'203417.5
2017-Aug-17 06:30N 48°28' W 124°37'19822271.5
2017-Aug-17 06:30N 51°03' W 127°48'201410.9
2017-Aug-17 06:00N 48°27' W 124°30'19720236.9
2017-Aug-17 06:00N 50°58' W 127°45'5 9.7
2017-Aug-17 05:31N 50°55' W 127°39'19678307.1
2017-Aug-17 05:30N 48°25' W 124°24'4 8.7
2017-Aug-17 05:00N 48°24' W 124°18'19570137.2
2017-Aug-17 05:00N 50°52' W 127°33'510.3
2017-Aug-17 04:31N 50°49' W 127°27'194697663.8
2017-Aug-17 04:30N 48°22' W 124°12'191383.2
2017-Aug-17 04:01N 50°45' W 127°28'19511167.1
2017-Aug-17 03:59N 48°20' W 124°06'195404.9
2017-Aug-17 03:31N 50°45' W 127°28'199238691.6
2017-Aug-17 03:30N 48°18' W 124°01'1 1.0
2017-Aug-17 03:00N 48°18' W 123°60'199143582.7
2017-Aug-17 03:00N 50°45' W 127°28'200398.1
2017-Aug-17 02:30N 48°18' W 123°59'1993260.4
2017-Aug-17 02:26N 50°44' W 127°29'203465.3
2017-Aug-17 02:00N 48°17' W 123°51'2045960.1
2017-Aug-17 01:58N 50°43' W 127°29'208446.3
2017-Aug-17 01:30N 48°16' W 123°43'2086081.4
2017-Aug-17 01:28N 50°43' W 127°29'212450.5
2017-Aug-17 01:00N 48°16' W 123°35'510.5
2017-Aug-17 00:31N 48°17' W 123°28'214487.1
2017-Aug-17 00:04N 50°43' W 127°29'2173467.5
2017-Aug-17 00:00N 48°19' W 123°20'2175866.0
2017-Aug-16 23:58N 50°43' W 127°29'218474.3
2017-Aug-16 23:31N 48°21' W 123°14'2185458.1
2017-Aug-16 23:28N 50°43' W 127°29'217472.0
2017-Aug-16 23:01N 48°25' W 123°12'2175508.1
2017-Aug-16 22:58N 50°43' W 127°29'213460.3
2017-Aug-16 22:30N 48°30' W 123°12'2135813.5
2017-Aug-16 22:28N 50°43' W 127°29'209453.0
2017-Aug-16 22:01N 48°35' W 123°14'2095255.8
2017-Aug-16 21:58N 50°43' W 127°29'208450.1
2017-Aug-16 21:30N 48°37' W 123°15'2085298.9
2017-Aug-16 21:28N 50°43' W 127°29'207450.2
2017-Aug-16 21:00N 48°37' W 123°15'2075412.7
2017-Aug-16 20:58N 50°43' W 127°29'208449.7
2017-Aug-16 20:30N 48°37' W 123°15'2085338.8
2017-Aug-16 20:28N 50°43' W 127°29'206444.2
2017-Aug-16 20:00N 48°40' W 123°15'2065525.8
2017-Aug-16 19:58N 50°43' W 127°29'202428.8
2017-Aug-16 19:30N 48°44' W 123°17'2026992.6
2017-Aug-16 19:28N 50°43' W 127°29'198428.8
2017-Aug-16 19:00N 48°44' W 123°25'1985328.4
2017-Aug-16 18:58N 50°43' W 127°29'197427.9
2017-Aug-16 18:30N 48°41' W 123°30'1975074.2
2017-Aug-16 18:28N 50°43' W 127°29'198430.5
2017-Aug-16 18:01N 48°40' W 123°30'1985023.4
2017-Aug-16 17:58N 50°43' W 127°29'0 0.0
2017-Aug-16 17:22N 50°43' W 127°29'2001014.8
2017-Aug-16 17:10N 48°39' W 123°27'0 0.0
2017-Aug-16 16:58N 48°39' W 123°27'2001944.5
2017-Aug-16 16:52N 50°43' W 127°29'200503.5
2017-Aug-16 16:28N 48°39' W 123°27'0 0.0
2017-Aug-16 15:58N 48°39' W 123°27'0 0.0
2017-Aug-16 15:22N 48°39' W 123°27'0 0.0
2017-Aug-16 14:58N 48°39' W 123°27'0 0.0
2017-Aug-16 14:28N 48°39' W 123°27'0 0.0
2017-Aug-16 13:58N 48°39' W 123°27'2001498.9
2017-Aug-16 13:50N 50°43' W 127°29'200545.1
2017-Aug-16 13:28N 48°39' W 123°27'2006046.1
2017-Aug-16 13:26N 50°43' W 127°29'200428.3
2017-Aug-16 12:58N 48°39' W 123°27'2005946.1
2017-Aug-16 12:56N 50°43' W 127°29'200352.9
2017-Aug-16 12:22N 48°39' W 123°27'2005995.7
2017-Aug-16 12:20N 50°43' W 127°29'200545.1
2017-Aug-16 11:58N 48°39' W 123°27'2006046.1
2017-Aug-16 11:56N 50°43' W 127°29'200428.0
2017-Aug-16 11:28N 48°39' W 123°27'2005995.7
2017-Aug-16 11:26N 50°43' W 127°29'200428.3
2017-Aug-16 10:58N 48°39' W 123°27'2005995.7
2017-Aug-16 10:56N 50°43' W 127°29'0 0.0
2017-Aug-16 10:26N 50°43' W 127°29'2001197.1
2017-Aug-16 10:16N 48°39' W 123°27'0 0.0
2017-Aug-16 09:58N 48°39' W 123°27'2006046.1
2017-Aug-16 09:56N 50°43' W 127°29'0 0.0
2017-Aug-16 09:26N 50°43' W 127°29'2002973.1
2017-Aug-16 09:22N 48°39' W 123°27'200461.5
2017-Aug-16 08:56N 50°43' W 127°29'0 0.0
2017-Aug-16 08:26N 50°43' W 127°29'0 0.0
2017-Aug-16 07:56N 50°43' W 127°29'0 0.0
2017-Aug-16 07:26N 50°43' W 127°29'0 0.0
2017-Aug-16 06:56N 50°43' W 127°29'0 0.0
2017-Aug-16 05:44N 50°43' W 127°29'0 0.0
2017-Aug-16 05:20N 50°43' W 127°29'0 0.0
2017-Aug-16 04:56N 50°43' W 127°29'0 0.0
2017-Aug-16 04:26N 50°43' W 127°29'0 0.0
2017-Aug-16 03:56N 50°43' W 127°29'0 0.0
2017-Aug-16 03:26N 50°43' W 127°29'200428.0
2017-Aug-16 02:58N 48°39' W 123°27'2006097.3
2017-Aug-16 02:56N 50°43' W 127°29'200427.8
2017-Aug-16 02:28N 48°39' W 123°27'2006097.3
2017-Aug-16 02:26N 50°43' W 127°29'0 0.0
2017-Aug-16 01:50N 50°43' W 127°29'200922.4
2017-Aug-16 01:37N 48°39' W 123°27'0 0.0
2017-Aug-16 01:28N 48°39' W 123°27'2006046.1
2017-Aug-16 01:26N 50°43' W 127°29'200427.8
2017-Aug-16 00:58N 48°39' W 123°27'2001502.1
2017-Aug-16 00:50N 50°43' W 127°29'200545.1
2017-Aug-16 00:28N 48°39' W 123°27'0 0.0
2017-Aug-15 23:04N 48°39' W 123°27'200857.5
2017-Aug-15 22:50N 50°43' W 127°29'0 0.0
2017-Aug-15 22:26N 50°43' W 127°29'0 0.0
2017-Aug-15 21:56N 50°43' W 127°29'2001197.1
2017-Aug-15 21:46N 48°39' W 123°27'200600.6
2017-Aug-15 21:26N 50°43' W 127°29'0 0.0
2017-Aug-15 20:56N 50°43' W 127°29'0 0.0
2017-Aug-15 20:26N 50°43' W 127°29'0 0.0
2017-Aug-15 19:56N 50°43' W 127°29'0 0.0
2017-Aug-15 19:26N 50°43' W 127°29'2001713.1
2017-Aug-15 19:19N 48°39' W 123°27'0 0.0
2017-Aug-15 18:52N 48°39' W 123°27'2005946.1
2017-Aug-15 18:50N 50°43' W 127°29'200545.5
2017-Aug-15 18:28N 48°39' W 123°27'2009104.0
2017-Aug-15 18:27N 50°43' W 127°29'1 1.7
2017-Aug-15 17:56N 50°43' W 127°28'1991241.9
2017-Aug-15 17:46N 48°39' W 123°27'0 0.0
2017-Aug-15 17:28N 48°39' W 123°27'1995118.3
2017-Aug-15 17:26N 50°43' W 127°28'0 0.0
2017-Aug-15 16:56N 50°43' W 127°28'1993242.4
2017-Aug-15 16:52N 48°39' W 123°27'0 0.0
2017-Aug-15 16:22N 48°39' W 123°27'1995082.0
2017-Aug-15 16:20N 50°43' W 127°28'199551.6
2017-Aug-15 15:58N 48°39' W 123°27'1991433.1
2017-Aug-15 15:50N 50°43' W 127°28'199551.2
2017-Aug-15 15:28N 48°39' W 123°27'1995082.0
2017-Aug-15 15:26N 50°43' W 127°28'0 0.0
2017-Aug-15 14:56N 50°43' W 127°28'0 0.0
2017-Aug-15 14:23N 50°43' W 127°28'19913028.4
2017-Aug-15 14:22N 48°39' W 123°27'199544.4
2017-Aug-15 14:00N 50°44' W 127°28'1992393.7
2017-Aug-15 13:55N 48°39' W 123°27'201479.8
2017-Aug-15 13:30N 50°47' W 127°27'2011103.1
2017-Aug-15 13:19N 48°39' W 123°27'202636.1
2017-Aug-15 13:00N 50°49' W 127°27'2021111.9
2017-Aug-15 12:49N 48°39' W 123°27'206646.2
2017-Aug-15 12:30N 50°51' W 127°31'2062516.6
2017-Aug-15 12:25N 48°39' W 123°27'209499.0
2017-Aug-15 12:00N 50°53' W 127°35'209739.9
2017-Aug-15 11:43N 48°39' W 123°27'212968.8
2017-Aug-15 11:30N 50°54' W 127°39'212553.8
2017-Aug-15 11:07N 48°39' W 123°27'2151821.5
2017-Aug-15 11:00N 50°57' W 127°42'4 7.1
2017-Aug-15 10:30N 50°59' W 127°46'5 9.9
2017-Aug-15 10:00N 51°04' W 127°48'5 9.7
2017-Aug-15 09:29N 51°09' W 127°50'5 9.9
2017-Aug-15 09:00N 51°14' W 127°53'510.0
2017-Aug-15 08:30N 51°18' W 127°55'6 9.5
2017-Aug-15 07:54N 51°23' W 128°00'4 9.1
2017-Aug-15 07:30N 51°25' W 128°05'5 9.6
2017-Aug-15 07:00N 51°29' W 128°10'510.0
2017-Aug-15 06:30N 51°33' W 128°14'2532997.4
2017-Aug-15 06:25N 48°39' W 123°27'258620.8
2017-Aug-15 06:00N 51°37' W 128°18'5 9.6
2017-Aug-15 05:30N 51°41' W 128°22'262920.7
2017-Aug-15 05:13N 48°39' W 123°27'2671239.2
2017-Aug-15 05:00N 51°46' W 128°26'267938.2
2017-Aug-15 04:43N 48°39' W 123°27'2721262.6
2017-Aug-15 04:30N 51°50' W 128°31'510.5
2017-Aug-15 04:00N 51°55' W 128°34'2771498.4
2017-Aug-15 03:49N 48°39' W 123°27'280888.0
2017-Aug-15 03:30N 51°60' W 128°33'2801513.3
2017-Aug-15 03:19N 48°39' W 123°27'282895.6
2017-Aug-15 03:00N 52°05' W 128°30'2823318.9
2017-Aug-15 02:55N 48°39' W 123°27'283672.5
2017-Aug-15 02:30N 52°07' W 128°28'2831012.1
2017-Aug-15 02:13N 48°39' W 123°27'2831316.9
2017-Aug-15 02:00N 52°07' W 128°28'283844.1
2017-Aug-15 01:40N 48°39' W 123°27'2831718.5
2017-Aug-15 01:30N 52°07' W 128°28'1 1.6
2017-Aug-15 01:01N 52°07' W 128°29'283669.1
2017-Aug-15 00:35N 48°39' W 123°27'2833633.0
2017-Aug-15 00:30N 52°07' W 128°28'283732.9
2017-Aug-15 00:07N 48°39' W 123°27'2822466.2
2017-Aug-15 00:00N 52°05' W 128°29'2823288.2
2017-Aug-14 23:55N 48°39' W 123°27'283684.3
2017-Aug-14 23:30N 52°07' W 128°29'2833299.9
2017-Aug-14 23:25N 48°39' W 123°27'283682.9
2017-Aug-14 23:00N 52°07' W 128°29'283583.6
2017-Aug-14 22:31N 48°39' W 123°27'28320761.9
2017-Aug-14 22:31N 52°06' W 128°29'2831516.1
2017-Aug-14 22:19N 48°39' W 123°27'282897.9
2017-Aug-14 22:00N 52°06' W 128°28'282732.3
2017-Aug-14 21:37N 48°39' W 123°27'2822434.5
2017-Aug-14 21:30N 52°06' W 128°27'1 2.5
2017-Aug-14 21:00N 52°06' W 128°29'0 0.8
2017-Aug-14 20:31N 52°05' W 128°29'282730.4
2017-Aug-14 20:07N 48°39' W 123°27'2812456.7
2017-Aug-14 20:00N 52°06' W 128°27'281729.2
2017-Aug-14 19:37N 48°39' W 123°27'2812450.2
2017-Aug-14 19:30N 52°05' W 128°27'2811514.8
2017-Aug-14 19:19N 48°39' W 123°27'281893.4
2017-Aug-14 19:00N 52°06' W 128°27'2813297.1
2017-Aug-14 18:55N 48°39' W 123°27'281679.9
2017-Aug-14 18:30N 52°06' W 128°27'2813289.2
2017-Aug-14 18:25N 48°39' W 123°27'281676.4
2017-Aug-14 18:00N 52°06' W 128°27'2813333.1
2017-Aug-14 17:55N 48°39' W 123°27'281643.8
2017-Aug-14 17:29N 52°06' W 128°27'2814483.8
2017-Aug-14 17:25N 48°39' W 123°27'281679.0
2017-Aug-14 17:00N 52°05' W 128°28'28116870.9
2017-Aug-14 16:59N 48°39' W 123°27'282580.9
2017-Aug-14 16:30N 52°06' W 128°28'280168182.4
2017-Aug-14 16:30N 48°40' W 123°30'280565.0
2017-Aug-14 16:01N 52°05' W 128°28'279334870.4
2017-Aug-14 16:00N 48°43' W 123°28'279559.4
2017-Aug-14 15:31N 52°05' W 128°30'280125914.4
2017-Aug-14 15:30N 48°45' W 123°22'280560.2
2017-Aug-14 15:00N 52°06' W 128°28'28460112.5
2017-Aug-14 15:00N 48°43' W 123°16'284575.2
2017-Aug-14 14:31N 52°05' W 128°29'288207221.2
2017-Aug-14 14:30N 48°39' W 123°14'4 8.0
2017-Aug-14 14:01N 48°35' W 123°13'292210224.6
2017-Aug-14 14:00N 52°04' W 128°33'296592.0
2017-Aug-14 13:30N 48°31' W 123°11'298357967.0
2017-Aug-14 13:30N 52°04' W 128°39'302603.7
2017-Aug-14 13:00N 48°27' W 123°10'305549088.2
2017-Aug-14 13:00N 52°03' W 128°47'306614.3
2017-Aug-14 12:30N 48°24' W 123°13'310557140.8
2017-Aug-14 12:30N 52°03' W 128°54'307615.3
2017-Aug-14 12:00N 48°22' W 123°20'31026592.4
2017-Aug-14 12:00N 52°03' W 129°01'311626.7
2017-Aug-14 11:30N 48°18' W 123°25'5 9.1
2017-Aug-14 11:00N 48°15' W 123°29'3082473.8
2017-Aug-14 10:53N 52°03' W 128°51'306827.8
2017-Aug-14 10:30N 48°13' W 123°35'30817605.7
2017-Aug-14 10:29N 52°03' W 128°55'305631.4
2017-Aug-14 10:00N 48°13' W 123°42'5 9.0
2017-Aug-14 09:30N 48°13' W 123°49'4 8.6
2017-Aug-14 09:00N 48°13' W 123°55'2986878.2
2017-Aug-14 08:58N 52°03' W 128°51'294644.0
2017-Aug-14 08:30N 48°15' W 124°01'296355746.9
2017-Aug-14 08:30N 52°03' W 128°56'292573.0
2017-Aug-14 08:00N 48°17' W 124°08'293716.5
2017-Aug-14 07:35N 52°04' W 128°57'2893612.7
2017-Aug-14 07:30N 48°19' W 124°14'28919991.1
2017-Aug-14 07:30N 52°04' W 128°57'285587.4
2017-Aug-14 07:01N 48°21' W 124°20'2829586.5
2017-Aug-14 06:59N 52°04' W 128°50'278588.7
2017-Aug-14 06:30N 48°23' W 124°26'5 9.2
2017-Aug-14 06:01N 48°25' W 124°32'4 8.5
2017-Aug-14 05:31N 48°26' W 124°38'276592.9
2017-Aug-14 05:03N 52°17' W 128°35'2737060.9
2017-Aug-14 05:00N 48°28' W 124°43'2734657.0
2017-Aug-14 04:57N 52°18' W 128°34'271609.7
2017-Aug-14 04:30N 48°28' W 124°49'27240837.9
2017-Aug-14 04:30N 52°21' W 128°30'270553.0
2017-Aug-14 04:00N 48°28' W 124°56'26923074.8
2017-Aug-14 04:00N 52°21' W 128°29'0 0.3
2017-Aug-14 03:31N 52°20' W 128°29'26764024.1
2017-Aug-14 03:30N 48°28' W 125°03'266531.7
2017-Aug-14 03:00N 52°20' W 128°29'26412027.1
2017-Aug-14 02:59N 48°28' W 125°11'262550.5
2017-Aug-14 02:30N 52°19' W 128°23'26111594.6
2017-Aug-14 02:29N 48°27' W 125°18'261456.1
2017-Aug-14 01:55N 52°20' W 128°22'2601380.1
2017-Aug-14 01:43N 48°25' W 125°27'2601124.9
2017-Aug-14 01:30N 52°20' W 128°22'26014605.8
2017-Aug-14 01:29N 48°24' W 125°31'4 9.1
2017-Aug-14 01:00N 48°23' W 125°37'2603030.5
2017-Aug-14 00:54N 52°19' W 128°29'260635.4
2017-Aug-14 00:30N 48°22' W 125°44'26213649.9
2017-Aug-14 00:29N 52°21' W 128°28'261505.4
2017-Aug-13 23:58N 48°20' W 125°51'2611235.7
2017-Aug-13 23:45N 52°21' W 128°29'1 5.5
2017-Aug-13 23:30N 52°20' W 128°29'25916098.0
2017-Aug-13 23:29N 48°19' W 125°57'259515.9
2017-Aug-13 22:59N 52°20' W 128°29'1 2.4
2017-Aug-13 22:31N 52°21' W 128°29'0 0.2
2017-Aug-13 21:56N 52°21' W 128°29'1 2.8
2017-Aug-13 21:28N 52°19' W 128°29'2 4.2
2017-Aug-13 21:00N 52°21' W 128°29'0 0.3
2017-Aug-13 20:29N 52°22' W 128°29'1 1.5
2017-Aug-13 20:00N 52°21' W 128°30'1 1.3
2017-Aug-13 19:30N 52°22' W 128°30'0 0.6
2017-Aug-13 19:00N 52°22' W 128°30'1 1.7
2017-Aug-13 18:18N 52°23' W 128°30'0 1.0
2017-Aug-13 17:53N 52°23' W 128°30'0 0.9
2017-Aug-13 17:28N 52°23' W 128°30'1 3.3
2017-Aug-13 17:00N 52°23' W 128°28'0 0.9
2017-Aug-13 16:30N 52°23' W 128°28'3 5.2
2017-Aug-13 16:01N 52°20' W 128°29'1 1.3
2017-Aug-13 15:30N 52°21' W 128°29'1 2.4
2017-Aug-13 14:59N 52°20' W 128°29'0 0.3
2017-Aug-13 14:31N 52°20' W 128°29'1 1.9
2017-Aug-13 13:59N 52°21' W 128°30'5 9.4
2017-Aug-13 13:28N 52°25' W 128°34'6 0.6
2017-Aug-13 03:29N 52°29' W 128°40'5 9.7
2017-Aug-13 03:00N 52°26' W 128°35'5 9.4
2017-Aug-13 02:28N 52°22' W 128°30'2 4.4
2017-Aug-13 02:00N 52°24' W 128°30'3 5.3
2017-Aug-13 01:28N 52°21' W 128°30'3 5.4
2017-Aug-13 00:57N 52°24' W 128°30'1 2.9
2017-Aug-13 00:30N 52°22' W 128°29'0 0.1
2017-Aug-12 23:46N 52°22' W 128°29'0 1.6
2017-Aug-12 23:29N 52°23' W 128°29'1 1.3
2017-Aug-12 22:57N 52°23' W 128°29'3 6.4
2017-Aug-12 22:30N 52°20' W 128°30'3 5.6
2017-Aug-12 22:00N 52°18' W 128°27'3 5.0
2017-Aug-12 21:22N 52°21' W 128°29'2 6.2
2017-Aug-12 21:00N 52°21' W 128°26'1 1.3
2017-Aug-12 20:30N 52°21' W 128°27'0 0.9
2017-Aug-12 20:00N 52°21' W 128°27'1 1.9
2017-Aug-12 19:25N 52°21' W 128°26'2 6.0
2017-Aug-12 19:01N 52°21' W 128°30'3 5.9
2017-Aug-12 18:30N 52°22' W 128°25'3 3.8
2017-Aug-12 17:43N 52°22' W 128°30'2 6.1
2017-Aug-12 17:21N 52°24' W 128°29'3 6.4
2017-Aug-12 16:53N 52°21' W 128°30'2 5.9
2017-Aug-12 16:30N 52°19' W 128°29'1 1.4
2017-Aug-12 15:57N 52°18' W 128°29'4 8.9
2017-Aug-12 15:30N 52°15' W 128°33'510.1
2017-Aug-12 14:57N 52°11' W 128°39'5 9.9
2017-Aug-12 14:29N 52°08' W 128°44'5 9.8
2017-Aug-12 14:00N 52°04' W 128°50'7 6.2
2017-Aug-12 12:50N 52°04' W 129°02'7 6.7
2017-Aug-12 11:50N 52°04' W 128°51'0 0.2
2017-Aug-12 09:59N 52°04' W 128°51'4 7.1
2017-Aug-12 09:25N 52°04' W 128°57'3 7.6
2017-Aug-12 09:00N 52°04' W 129°02'7 6.8
2017-Aug-12 07:55N 52°04' W 128°50'4 9.2
2017-Aug-12 07:29N 52°07' W 128°45'510.0
2017-Aug-12 07:00N 52°10' W 128°39'510.1
2017-Aug-12 06:30N 52°13' W 128°32'5 9.8
2017-Aug-12 05:59N 52°15' W 128°25'510.6
2017-Aug-12 05:30N 52°15' W 128°17'4 8.1
2017-Aug-12 05:01N 52°15' W 128°10'2 3.6
2017-Aug-12 04:30N 52°16' W 128°08'1 2.4
2017-Aug-12 03:59N 52°16' W 128°10'0 0.9
2017-Aug-12 03:30N 52°16' W 128°09'3 5.3
2017-Aug-12 03:00N 52°18' W 128°06'2 3.0
2017-Aug-12 02:18N 52°19' W 128°03'2 5.2
2017-Aug-12 02:00N 52°18' W 128°05'2 3.9
2017-Aug-12 01:30N 52°16' W 128°07'0 0.6
2017-Aug-12 01:00N 52°17' W 128°07'1 1.5
2017-Aug-12 00:30N 52°17' W 128°06'0 0.7
2017-Aug-12 00:00N 52°17' W 128°06'0 0.7
2017-Aug-11 23:30N 52°17' W 128°07'2 4.6
2017-Aug-11 23:00N 52°15' W 128°10'1 1.6
2017-Aug-11 22:28N 52°15' W 128°11'2 3.5
2017-Aug-11 21:58N 52°17' W 128°12'1 2.8
2017-Aug-11 21:29N 52°16' W 128°10'2 3.6
2017-Aug-11 21:00N 52°17' W 128°13'1 2.5
2017-Aug-11 20:27N 52°16' W 128°11'1 1.1
2017-Aug-11 19:56N 52°15' W 128°11'0 0.7
2017-Aug-11 19:29N 52°16' W 128°11'1 2.5
2017-Aug-11 18:57N 52°16' W 128°13'2 4.2
2017-Aug-11 18:30N 52°15' W 128°10'142466.7
2017-Aug-11 18:12N 50°18' W 130°18'1 3.2
2017-Aug-11 17:54N 50°18' W 130°16'139816.2
2017-Aug-11 17:44N 52°11' W 128°07'1 3.0
2017-Aug-11 17:29N 52°10' W 128°06'1 2.5
2017-Aug-11 16:56N 52°11' W 128°06'2 5.5
2017-Aug-11 16:29N 52°13' W 128°09'2 4.6
2017-Aug-11 15:59N 52°14' W 128°12'5 9.4
2017-Aug-11 15:29N 52°15' W 128°20'5 9.4
2017-Aug-11 15:00N 52°15' W 128°27'510.1
2017-Aug-11 14:30N 52°12' W 128°34'1010.2
2017-Aug-11 13:30N 52°06' W 128°47'8 8.4
2017-Aug-11 12:34N 52°05' W 128°60'1 7.9
2017-Aug-11 12:30N 52°05' W 129°01'6 6.0
2017-Aug-11 11:26N 52°05' W 128°50'4 8.4
2017-Aug-11 11:00N 52°05' W 128°56'4 2.6
2017-Aug-11 09:38N 52°05' W 128°51'1 7.0
2017-Aug-11 09:25N 52°05' W 128°53'3 8.1
2017-Aug-11 09:00N 52°05' W 128°58'5 3.8
2017-Aug-11 07:47N 52°05' W 128°51'2 6.5
2017-Aug-11 07:30N 52°05' W 128°54'4 8.0
2017-Aug-11 06:59N 52°06' W 129°00'15 7.4
2017-Aug-11 04:57N 52°04' W 128°36'4 9.5
2017-Aug-11 04:30N 52°05' W 128°29'2 4.1
2017-Aug-11 04:00N 52°06' W 128°27'0 0.4
2017-Aug-11 03:30N 52°06' W 128°27'1 2.0
2017-Aug-11 03:00N 52°07' W 128°28'1 2.7
2017-Aug-11 02:31N 52°06' W 128°26'2 4.3
2017-Aug-11 02:00N 52°07' W 128°28'2 3.5
2017-Aug-11 01:30N 52°06' W 128°26'1 2.5
2017-Aug-11 00:59N 52°05' W 128°27'3 6.2
2017-Aug-11 00:30N 52°08' W 128°28'2 3.4
2017-Aug-11 00:00N 52°06' W 128°27'1 1.8
2017-Aug-10 23:31N 52°07' W 128°27'1 2.7
2017-Aug-10 23:00N 52°07' W 128°25'1 2.9
2017-Aug-10 22:30N 52°07' W 128°27'0 0.9
2017-Aug-10 22:00N 52°08' W 128°27'1 2.9
2017-Aug-10 21:30N 52°06' W 128°26'1 2.5
2017-Aug-10 21:00N 52°07' W 128°25'4 8.8
2017-Aug-10 20:30N 52°04' W 128°31'8 9.8
2017-Aug-10 19:43N 52°05' W 128°43'310.5
2017-Aug-10 19:25N 52°06' W 128°48'7 5.5
2017-Aug-10 18:03N 52°06' W 129°00'1 7.2
2017-Aug-10 17:54N 52°06' W 129°02'0 0.3
2017-Aug-10 17:22N 52°06' W 129°02'7 7.1
2017-Aug-10 16:20N 52°06' W 128°50'5 7.8
2017-Aug-10 15:42N 52°06' W 128°58'4 1.4
2017-Aug-10 12:30N 52°07' W 128°51'3 5.7
2017-Aug-10 12:00N 52°07' W 128°56'2 1.4
2017-Aug-10 10:43N 52°07' W 128°53'2 7.4
2017-Aug-10 10:31N 52°07' W 128°50'6 8.0
2017-Aug-10 09:44N 52°07' W 129°00'4 3.5
2017-Aug-10 08:34N 52°07' W 128°54'2 7.6
2017-Aug-10 08:18N 52°07' W 128°50'2 7.3
2017-Aug-10 08:00N 52°07' W 128°54'2 1.3
2017-Aug-10 06:21N 52°08' W 128°50'2 6.8
2017-Aug-10 05:59N 52°08' W 128°54'3 6.8
2017-Aug-10 05:30N 52°08' W 128°60'6 1.1
2017-Aug-10 00:05N 52°09' W 128°50'2 5.7
2017-Aug-09 23:39N 52°09' W 128°54'2 1.0
2017-Aug-09 22:04N 52°09' W 128°52'1 8.2
2017-Aug-09 21:53N 52°09' W 128°54'3 7.9
2017-Aug-09 21:30N 52°09' W 128°59'4 3.0
2017-Aug-09 20:06N 52°09' W 128°52'2 8.1
2017-Aug-09 19:49N 52°09' W 128°56'1 0.2
2017-Aug-09 16:00N 52°10' W 128°55'2 1.2
2017-Aug-09 14:30N 52°10' W 128°52'5 6.7
2017-Aug-09 13:49N 52°10' W 128°59'0 0.3
2017-Aug-09 13:15N 52°10' W 128°60'4 5.7
2017-Aug-09 12:28N 52°10' W 128°52'1 1.3
2017-Aug-09 12:00N 52°10' W 128°53'4 8.0
2017-Aug-09 11:30N 52°10' W 128°60'0 0.5
2017-Aug-09 10:59N 52°11' W 128°59'3 5.8
2017-Aug-09 10:30N 52°11' W 128°55'3 5.6
2017-Aug-09 10:00N 52°11' W 128°50'4 8.0
2017-Aug-09 09:30N 52°11' W 128°57'2 2.7
2017-Aug-09 08:47N 52°11' W 128°60'2 5.3
2017-Aug-09 08:29N 52°11' W 128°57'3 5.8
2017-Aug-09 07:54N 52°11' W 128°52'5 9.1
2017-Aug-09 07:19N 52°13' W 128°44'310.0
2017-Aug-09 07:00N 52°15' W 128°40'5 9.7
2017-Aug-09 06:30N 52°19' W 128°35'5 9.8
2017-Aug-09 06:00N 52°23' W 128°32'5 9.4
2017-Aug-09 05:30N 52°27' W 128°27'7 1.0
2017-Aug-08 22:13N 52°27' W 128°14'0 2.1
2017-Aug-08 21:59N 52°28' W 128°15'4 4.7
2017-Aug-08 21:05N 52°32' W 128°16'5 1.4
2017-Aug-08 17:46N 52°27' W 128°15'  
Track history (hours):
 
Tides and Currents Weather Stations Pressure Air Temp Water Temp Dewpoint Dewpoint Depression Visibility Wind Speed Wind Dir Waves Ship Positions

Oceanographic research ship John P. Tully (Canada)

Detailed information on ship capabilities available from University of Delaware's Ocean Information Center.

Last reported at 2017-Aug-18 17:00 UTC. Time now 2017-Aug-18 18:20 UTC.
Position N 48°42' W 127°42'.

Length 68.9 m; beam 14.5 m; draft 4.5 m.

MMSI: 316114000.

Wind from 300 at 14 knots

Barometer 1022.6 mb
Air temperature 16.3 ° C
Dewpoint 14.6 ° C

Date/timePositionNaut miles runAvg speedWind from/ knotsBaromVisibWave heightAir tempDewpointWater temp
2017-Aug-18 17:00N 48°42' W 127°42'0 0.0 300 / 141022.6 16.314.6
2017-Aug-18 16:00N 48°42' W 127°42'8 7.9 300 / 121022.6 16.014.9
2017-Aug-18 15:00N 48°42' W 127°30'8 7.9 300 / 101022.1 16.215.8
2017-Aug-18 14:00N 48°42' W 127°18'4 4.0 280 / 121021.9 16.416.0
2017-Aug-18 13:00N 48°42' W 127°12'0 0.0 270 / 111022.0 16.315.9
2017-Aug-18 12:00N 48°42' W 127°12'8 7.9 250 / 121022.1 16.316.0
2017-Aug-18 11:00N 48°42' W 127°00'8 7.9 270 / 101022.1 15.915.6
2017-Aug-18 10:00N 48°42' W 126°48'4 4.0 260 / 81022.1 15.815.5
2017-Aug-18 09:00N 48°42' W 126°42'6 6.0 250 / 91022.6 15.715.4
2017-Aug-18 08:00N 48°36' W 126°42'0 0.0 220 / 81023.1 15.715.4
2017-Aug-18 07:00N 48°36' W 126°42'0 0.0 200 / 91023.1 15.415.1
2017-Aug-18 06:00N 48°36' W 126°42'6 6.0 200 / 81023.5 15.315.0
2017-Aug-18 05:00N 48°42' W 126°42'0 0.0 210 / 51024.1 15.114.7
2017-Aug-18 04:00N 48°42' W 126°42'0 0.0 250 / 71023.9 16.013.6
2017-Aug-18 03:00N 48°42' W 126°42'0 0.0 270 / 91023.9 16.213.9
2017-Aug-18 02:00N 48°42' W 126°42'6 6.0 260 / 71024.2 16.313.0
2017-Aug-18 01:00N 48°36' W 126°42'6 6.0 280 / 71024.2 16.612.6
2017-Aug-18 00:00N 48°42' W 126°42'0 0.0 250 / 51024.9 16.512.9
2017-Aug-17 23:00N 48°42' W 126°42'0 0.0 250 / 31025.1 16.513.4
2017-Aug-17 22:00N 48°42' W 126°42'6 6.0 270 / 41025.2 16.213.6
2017-Aug-17 21:00N 48°36' W 126°42'359.2 270 / 51025.1 16.013.9
2017-Aug-17 20:56N 48°39' W 126°40'3 3.4
2017-Aug-17 20:00N 48°36' W 126°42'515.8 270 / 51024.7 15.513.5
2017-Aug-17 19:42N 48°39' W 126°37'5 7.1
2017-Aug-17 19:00N 48°36' W 126°30'7 9.9 280 / 51024.3 15.113.6
2017-Aug-17 18:18N 48°37' W 126°20'0 0.3
2017-Aug-17 18:00N 48°37' W 126°20'2182.1
2017-Aug-17 18:00N 48°36' W 126°18'2 3.7 290 / 51024.1 15.013.6
2017-Aug-17 17:27N 48°38' W 126°20'243842.7
2017-Aug-17 17:10N 52°26' W 128°27'2431564.8
2017-Aug-17 17:00N 48°37' W 126°18'190.9
2017-Aug-17 17:00N 48°36' W 126°18'2446902.8 300 / 81023.7 14.913.7
2017-Aug-17 16:57N 52°25' W 128°29'244530.5
2017-Aug-17 16:30N 48°37' W 126°12'24114208.8
2017-Aug-17 16:29N 52°20' W 128°31'242514.5
2017-Aug-17 16:00N 48°36' W 126°06'021.1
2017-Aug-17 16:00N 48°36' W 126°06'23811267.3 310 / 71023.4 14.913.9
2017-Aug-17 15:58N 52°16' W 128°26'239516.6
2017-Aug-17 15:30N 48°36' W 126°01'2368323.4
2017-Aug-17 15:29N 52°15' W 128°19'236493.0
2017-Aug-17 15:00N 48°36' W 125°60'4441.9
2017-Aug-17 15:00N 48°36' W 125°54'23431257.4 300 / 91023.2 15.013.8
2017-Aug-17 14:59N 52°14' W 128°11'233488.6
2017-Aug-17 14:30N 48°36' W 126°00'2292479.9
2017-Aug-17 14:25N 52°10' W 128°08'229563.0
2017-Aug-17 14:00N 48°36' W 126°00'226203832.2
2017-Aug-17 14:00N 52°07' W 128°08'227453.4
2017-Aug-17 13:30N 48°36' W 125°59'22311302.5
2017-Aug-17 13:29N 52°05' W 128°02'5 9.4
2017-Aug-17 13:00N 52°04' W 127°55'221159219.7
2017-Aug-17 13:00N 48°36' W 125°56'3 6.2
2017-Aug-17 12:30N 48°36' W 125°52'219157615.0
2017-Aug-17 12:30N 51°60' W 127°56'221442.9
2017-Aug-17 12:00N 48°35' W 125°45'217195513.0
2017-Aug-17 12:00N 51°56' W 127°56'5 9.5
2017-Aug-17 11:31N 51°51' W 127°56'215386523.6
2017-Aug-17 11:30N 48°35' W 125°38'210420.7
2017-Aug-17 11:01N 51°46' W 127°56'212254709.7
2017-Aug-17 11:00N 48°35' W 125°32'1 2.2
2017-Aug-17 10:30N 48°35' W 125°30'208124796.6
2017-Aug-17 10:30N 51°41' W 127°54'210421.9
2017-Aug-17 10:00N 48°34' W 125°24'20541080.0
2017-Aug-17 10:00N 51°36' W 127°53'510.0
2017-Aug-17 09:30N 51°31' W 127°51'20348767.2
2017-Aug-17 09:30N 48°34' W 125°17'199401.6
2017-Aug-17 09:00N 51°26' W 127°51'202242312.8
2017-Aug-17 09:00N 48°33' W 125°10'5 9.7
2017-Aug-17 08:30N 48°32' W 125°03'202725670.0
2017-Aug-17 08:30N 51°22' W 127°53'5 9.1
2017-Aug-17 08:00N 51°17' W 127°53'20122562.9
2017-Aug-17 08:00N 48°32' W 124°56'5 9.4
2017-Aug-17 07:30N 48°31' W 124°50'20011229.4
2017-Aug-17 07:29N 51°12' W 127°53'203422.2
2017-Aug-17 07:00N 48°30' W 124°43'19914585.8
2017-Aug-17 07:00N 51°08' W 127°50'203417.5
2017-Aug-17 06:30N 48°28' W 124°37'19822271.5
2017-Aug-17 06:30N 51°03' W 127°48'201410.9
2017-Aug-17 06:00N 48°27' W 124°30'19720236.9
2017-Aug-17 06:00N 50°58' W 127°45'5 9.7
2017-Aug-17 05:31N 50°55' W 127°39'19678307.1
2017-Aug-17 05:30N 48°25' W 124°24'4 8.7
2017-Aug-17 05:00N 48°24' W 124°18'19570137.2
2017-Aug-17 05:00N 50°52' W 127°33'510.3
2017-Aug-17 04:31N 50°49' W 127°27'194697663.8
2017-Aug-17 04:30N 48°22' W 124°12'191383.2
2017-Aug-17 04:01N 50°45' W 127°28'19511167.1
2017-Aug-17 03:59N 48°20' W 124°06'195404.9
2017-Aug-17 03:31N 50°45' W 127°28'199238691.6
2017-Aug-17 03:30N 48°18' W 124°01'1 1.0
2017-Aug-17 03:00N 48°18' W 123°60'199143582.7
2017-Aug-17 03:00N 50°45' W 127°28'200398.1
2017-Aug-17 02:30N 48°18' W 123°59'1993260.4
2017-Aug-17 02:26N 50°44' W 127°29'203465.3
2017-Aug-17 02:00N 48°17' W 123°51'2045960.1
2017-Aug-17 01:58N 50°43' W 127°29'208446.3
2017-Aug-17 01:30N 48°16' W 123°43'2086081.4
2017-Aug-17 01:28N 50°43' W 127°29'212450.5
2017-Aug-17 01:00N 48°16' W 123°35'510.5
2017-Aug-17 00:31N 48°17' W 123°28'214487.1
2017-Aug-17 00:04N 50°43' W 127°29'2173467.5
2017-Aug-17 00:00N 48°19' W 123°20'2175866.0
2017-Aug-16 23:58N 50°43' W 127°29'218474.3
2017-Aug-16 23:31N 48°21' W 123°14'2185458.1
2017-Aug-16 23:28N 50°43' W 127°29'217472.0
2017-Aug-16 23:01N 48°25' W 123°12'2175508.1
2017-Aug-16 22:58N 50°43' W 127°29'213460.3
2017-Aug-16 22:30N 48°30' W 123°12'2135813.5
2017-Aug-16 22:28N 50°43' W 127°29'209453.0
2017-Aug-16 22:01N 48°35' W 123°14'2095255.8
2017-Aug-16 21:58N 50°43' W 127°29'208450.1
2017-Aug-16 21:30N 48°37' W 123°15'2085298.9
2017-Aug-16 21:28N 50°43' W 127°29'207450.2
2017-Aug-16 21:00N 48°37' W 123°15'2075412.7
2017-Aug-16 20:58N 50°43' W 127°29'208449.7
2017-Aug-16 20:30N 48°37' W 123°15'2085338.8
2017-Aug-16 20:28N 50°43' W 127°29'206444.2
2017-Aug-16 20:00N 48°40' W 123°15'2065525.8
2017-Aug-16 19:58N 50°43' W 127°29'202428.8
2017-Aug-16 19:30N 48°44' W 123°17'2026992.6
2017-Aug-16 19:28N 50°43' W 127°29'198428.8
2017-Aug-16 19:00N 48°44' W 123°25'1985328.4
2017-Aug-16 18:58N 50°43' W 127°29'197427.9
2017-Aug-16 18:30N 48°41' W 123°30'1975074.2
2017-Aug-16 18:28N 50°43' W 127°29'198430.5
2017-Aug-16 18:01N 48°40' W 123°30'1985023.4
2017-Aug-16 17:58N 50°43' W 127°29'0 0.0
2017-Aug-16 17:22N 50°43' W 127°29'2001014.8
2017-Aug-16 17:10N 48°39' W 123°27'0 0.0
2017-Aug-16 16:58N 48°39' W 123°27'2001944.5
2017-Aug-16 16:52N 50°43' W 127°29'200503.5
2017-Aug-16 16:28N 48°39' W 123°27'0 0.0
2017-Aug-16 15:58N 48°39' W 123°27'0 0.0
2017-Aug-16 15:22N 48°39' W 123°27'0 0.0
2017-Aug-16 14:58N 48°39' W 123°27'0 0.0
2017-Aug-16 14:28N 48°39' W 123°27'0 0.0
2017-Aug-16 13:58N 48°39' W 123°27'2001498.9
2017-Aug-16 13:50N 50°43' W 127°29'200545.1
2017-Aug-16 13:28N 48°39' W 123°27'2006046.1
2017-Aug-16 13:26N 50°43' W 127°29'200428.3
2017-Aug-16 12:58N 48°39' W 123°27'2005946.1
2017-Aug-16 12:56N 50°43' W 127°29'200352.9
2017-Aug-16 12:22N 48°39' W 123°27'2005995.7
2017-Aug-16 12:20N 50°43' W 127°29'200545.1
2017-Aug-16 11:58N 48°39' W 123°27'2006046.1
2017-Aug-16 11:56N 50°43' W 127°29'200428.0
2017-Aug-16 11:28N 48°39' W 123°27'2005995.7
2017-Aug-16 11:26N 50°43' W 127°29'200428.3
2017-Aug-16 10:58N 48°39' W 123°27'2005995.7
2017-Aug-16 10:56N 50°43' W 127°29'0 0.0
2017-Aug-16 10:26N 50°43' W 127°29'2001197.1
2017-Aug-16 10:16N 48°39' W 123°27'0 0.0
2017-Aug-16 09:58N 48°39' W 123°27'2006046.1
2017-Aug-16 09:56N 50°43' W 127°29'0 0.0
2017-Aug-16 09:26N 50°43' W 127°29'2002973.1
2017-Aug-16 09:22N 48°39' W 123°27'200461.5
2017-Aug-16 08:56N 50°43' W 127°29'0 0.0
2017-Aug-16 08:26N 50°43' W 127°29'0 0.0
2017-Aug-16 07:56N 50°43' W 127°29'0 0.0
2017-Aug-16 07:26N 50°43' W 127°29'0 0.0
2017-Aug-16 06:56N 50°43' W 127°29'0 0.0
2017-Aug-16 05:44N 50°43' W 127°29'0 0.0
2017-Aug-16 05:20N 50°43' W 127°29'0 0.0
2017-Aug-16 04:56N 50°43' W 127°29'0 0.0
2017-Aug-16 04:26N 50°43' W 127°29'0 0.0
2017-Aug-16 03:56N 50°43' W 127°29'0 0.0
2017-Aug-16 03:26N 50°43' W 127°29'200428.0
2017-Aug-16 02:58N 48°39' W 123°27'2006097.3
2017-Aug-16 02:56N 50°43' W 127°29'200427.8
2017-Aug-16 02:28N 48°39' W 123°27'2006097.3
2017-Aug-16 02:26N 50°43' W 127°29'0 0.0
2017-Aug-16 01:50N 50°43' W 127°29'200922.4
2017-Aug-16 01:37N 48°39' W 123°27'0 0.0
2017-Aug-16 01:28N 48°39' W 123°27'2006046.1
2017-Aug-16 01:26N 50°43' W 127°29'200427.8
2017-Aug-16 00:58N 48°39' W 123°27'2001502.1
2017-Aug-16 00:50N 50°43' W 127°29'200545.1
2017-Aug-16 00:28N 48°39' W 123°27'0 0.0
2017-Aug-15 23:04N 48°39' W 123°27'200857.5
2017-Aug-15 22:50N 50°43' W 127°29'0 0.0
2017-Aug-15 22:26N 50°43' W 127°29'0 0.0
2017-Aug-15 21:56N 50°43' W 127°29'2001197.1
2017-Aug-15 21:46N 48°39' W 123°27'200600.6
2017-Aug-15 21:26N 50°43' W 127°29'0 0.0
2017-Aug-15 20:56N 50°43' W 127°29'0 0.0
2017-Aug-15 20:26N 50°43' W 127°29'0 0.0
2017-Aug-15 19:56N 50°43' W 127°29'0 0.0
2017-Aug-15 19:26N 50°43' W 127°29'2001713.1
2017-Aug-15 19:19N 48°39' W 123°27'0 0.0
2017-Aug-15 18:52N 48°39' W 123°27'2005946.1
2017-Aug-15 18:50N 50°43' W 127°29'200545.5
2017-Aug-15 18:28N 48°39' W 123°27'2009104.0
2017-Aug-15 18:27N 50°43' W 127°29'1 1.7
2017-Aug-15 17:56N 50°43' W 127°28'1991241.9
2017-Aug-15 17:46N 48°39' W 123°27'0 0.0
2017-Aug-15 17:28N 48°39' W 123°27'1995118.3
2017-Aug-15 17:26N 50°43' W 127°28'0 0.0
2017-Aug-15 16:56N 50°43' W 127°28'1993242.4
2017-Aug-15 16:52N 48°39' W 123°27'0 0.0
2017-Aug-15 16:22N 48°39' W 123°27'1995082.0
2017-Aug-15 16:20N 50°43' W 127°28'199551.6
2017-Aug-15 15:58N 48°39' W 123°27'1991433.1
2017-Aug-15 15:50N 50°43' W 127°28'199551.2
2017-Aug-15 15:28N 48°39' W 123°27'1995082.0
2017-Aug-15 15:26N 50°43' W 127°28'0 0.0
2017-Aug-15 14:56N 50°43' W 127°28'0 0.0
2017-Aug-15 14:23N 50°43' W 127°28'19913028.4
2017-Aug-15 14:22N 48°39' W 123°27'199544.4
2017-Aug-15 14:00N 50°44' W 127°28'1992393.7
2017-Aug-15 13:55N 48°39' W 123°27'201479.8
2017-Aug-15 13:30N 50°47' W 127°27'2011103.1
2017-Aug-15 13:19N 48°39' W 123°27'202636.1
2017-Aug-15 13:00N 50°49' W 127°27'2021111.9
2017-Aug-15 12:49N 48°39' W 123°27'206646.2
2017-Aug-15 12:30N 50°51' W 127°31'2062516.6
2017-Aug-15 12:25N 48°39' W 123°27'209499.0
2017-Aug-15 12:00N 50°53' W 127°35'209739.9
2017-Aug-15 11:43N 48°39' W 123°27'212968.8
2017-Aug-15 11:30N 50°54' W 127°39'212553.8
2017-Aug-15 11:07N 48°39' W 123°27'2151821.5
2017-Aug-15 11:00N 50°57' W 127°42'4 7.1
2017-Aug-15 10:30N 50°59' W 127°46'5 9.9
2017-Aug-15 10:00N 51°04' W 127°48'5 9.7
2017-Aug-15 09:29N 51°09' W 127°50'5 9.9
2017-Aug-15 09:00N 51°14' W 127°53'510.0
2017-Aug-15 08:30N 51°18' W 127°55'6 9.5
2017-Aug-15 07:54N 51°23' W 128°00'4 9.1
2017-Aug-15 07:30N 51°25' W 128°05'5 9.6
2017-Aug-15 07:00N 51°29' W 128°10'510.0
2017-Aug-15 06:30N 51°33' W 128°14'2532997.4
2017-Aug-15 06:25N 48°39' W 123°27'258620.8
2017-Aug-15 06:00N 51°37' W 128°18'5 9.6
2017-Aug-15 05:30N 51°41' W 128°22'262920.7
2017-Aug-15 05:13N 48°39' W 123°27'2671239.2
2017-Aug-15 05:00N 51°46' W 128°26'267938.2
2017-Aug-15 04:43N 48°39' W 123°27'2721262.6
2017-Aug-15 04:30N 51°50' W 128°31'510.5
2017-Aug-15 04:00N 51°55' W 128°34'2771498.4
2017-Aug-15 03:49N 48°39' W 123°27'280888.0
2017-Aug-15 03:30N 51°60' W 128°33'2801513.3
2017-Aug-15 03:19N 48°39' W 123°27'282895.6
2017-Aug-15 03:00N 52°05' W 128°30'2823318.9
2017-Aug-15 02:55N 48°39' W 123°27'283672.5
2017-Aug-15 02:30N 52°07' W 128°28'2831012.1
2017-Aug-15 02:13N 48°39' W 123°27'2831316.9
2017-Aug-15 02:00N 52°07' W 128°28'283844.1
2017-Aug-15 01:40N 48°39' W 123°27'2831718.5
2017-Aug-15 01:30N 52°07' W 128°28'1 1.6
2017-Aug-15 01:01N 52°07' W 128°29'283669.1
2017-Aug-15 00:35N 48°39' W 123°27'2833633.0
2017-Aug-15 00:30N 52°07' W 128°28'283732.9
2017-Aug-15 00:07N 48°39' W 123°27'2822466.2
2017-Aug-15 00:00N 52°05' W 128°29'2823288.2
2017-Aug-14 23:55N 48°39' W 123°27'283684.3
2017-Aug-14 23:30N 52°07' W 128°29'2833299.9
2017-Aug-14 23:25N 48°39' W 123°27'283682.9
2017-Aug-14 23:00N 52°07' W 128°29'283583.6
2017-Aug-14 22:31N 48°39' W 123°27'28320761.9
2017-Aug-14 22:31N 52°06' W 128°29'2831516.1
2017-Aug-14 22:19N 48°39' W 123°27'282897.9
2017-Aug-14 22:00N 52°06' W 128°28'282732.3
2017-Aug-14 21:37N 48°39' W 123°27'2822434.5
2017-Aug-14 21:30N 52°06' W 128°27'1 2.5
2017-Aug-14 21:00N 52°06' W 128°29'0 0.8
2017-Aug-14 20:31N 52°05' W 128°29'282730.4
2017-Aug-14 20:07N 48°39' W 123°27'2812456.7
2017-Aug-14 20:00N 52°06' W 128°27'281729.2
2017-Aug-14 19:37N 48°39' W 123°27'2812450.2
2017-Aug-14 19:30N 52°05' W 128°27'2811514.8
2017-Aug-14 19:19N 48°39' W 123°27'281893.4
2017-Aug-14 19:00N 52°06' W 128°27'2813297.1
2017-Aug-14 18:55N 48°39' W 123°27'281679.9
2017-Aug-14 18:30N 52°06' W 128°27'2813289.2
2017-Aug-14 18:25N 48°39' W 123°27'281676.4
2017-Aug-14 18:00N 52°06' W 128°27'2813333.1
2017-Aug-14 17:55N 48°39' W 123°27'281643.8
2017-Aug-14 17:29N 52°06' W 128°27'2814483.8
2017-Aug-14 17:25N 48°39' W 123°27'281679.0
2017-Aug-14 17:00N 52°05' W 128°28'28116870.9
2017-Aug-14 16:59N 48°39' W 123°27'282580.9
2017-Aug-14 16:30N 52°06' W 128°28'280168182.4
2017-Aug-14 16:30N 48°40' W 123°30'280565.0
2017-Aug-14 16:01N 52°05' W 128°28'279334870.4
2017-Aug-14 16:00N 48°43' W 123°28'279559.4
2017-Aug-14 15:31N 52°05' W 128°30'280125914.4
2017-Aug-14 15:30N 48°45' W 123°22'280560.2
2017-Aug-14 15:00N 52°06' W 128°28'28460112.5
2017-Aug-14 15:00N 48°43' W 123°16'284575.2
2017-Aug-14 14:31N 52°05' W 128°29'288207221.2
2017-Aug-14 14:30N 48°39' W 123°14'4 8.0
2017-Aug-14 14:01N 48°35' W 123°13'292210224.6
2017-Aug-14 14:00N 52°04' W 128°33'296592.0
2017-Aug-14 13:30N 48°31' W 123°11'298357967.0
2017-Aug-14 13:30N 52°04' W 128°39'302603.7
2017-Aug-14 13:00N 48°27' W 123°10'305549088.2
2017-Aug-14 13:00N 52°03' W 128°47'306614.3
2017-Aug-14 12:30N 48°24' W 123°13'310557140.8
2017-Aug-14 12:30N 52°03' W 128°54'307615.3
2017-Aug-14 12:00N 48°22' W 123°20'31026592.4
2017-Aug-14 12:00N 52°03' W 129°01'311626.7
2017-Aug-14 11:30N 48°18' W 123°25'5 9.1
2017-Aug-14 11:00N 48°15' W 123°29'3082473.8
2017-Aug-14 10:53N 52°03' W 128°51'306827.8
2017-Aug-14 10:30N 48°13' W 123°35'30817605.7
2017-Aug-14 10:29N 52°03' W 128°55'305631.4
2017-Aug-14 10:00N 48°13' W 123°42'5 9.0
2017-Aug-14 09:30N 48°13' W 123°49'4 8.6
2017-Aug-14 09:00N 48°13' W 123°55'2986878.2
2017-Aug-14 08:58N 52°03' W 128°51'294644.0
2017-Aug-14 08:30N 48°15' W 124°01'296355746.9
2017-Aug-14 08:30N 52°03' W 128°56'292573.0
2017-Aug-14 08:00N 48°17' W 124°08'293716.5
2017-Aug-14 07:35N 52°04' W 128°57'2893612.7
2017-Aug-14 07:30N 48°19' W 124°14'28919991.1
2017-Aug-14 07:30N 52°04' W 128°57'285587.4
2017-Aug-14 07:01N 48°21' W 124°20'2829586.5
2017-Aug-14 06:59N 52°04' W 128°50'278588.7
2017-Aug-14 06:30N 48°23' W 124°26'5 9.2
2017-Aug-14 06:01N 48°25' W 124°32'4 8.5
2017-Aug-14 05:31N 48°26' W 124°38'276592.9
2017-Aug-14 05:03N 52°17' W 128°35'2737060.9
2017-Aug-14 05:00N 48°28' W 124°43'2734657.0
2017-Aug-14 04:57N 52°18' W 128°34'271609.7
2017-Aug-14 04:30N 48°28' W 124°49'27240837.9
2017-Aug-14 04:30N 52°21' W 128°30'270553.0
2017-Aug-14 04:00N 48°28' W 124°56'26923074.8
2017-Aug-14 04:00N 52°21' W 128°29'0 0.3
2017-Aug-14 03:31N 52°20' W 128°29'26764024.1
2017-Aug-14 03:30N 48°28' W 125°03'266531.7
2017-Aug-14 03:00N 52°20' W 128°29'26412027.1
2017-Aug-14 02:59N 48°28' W 125°11'262550.5
2017-Aug-14 02:30N 52°19' W 128°23'26111594.6
2017-Aug-14 02:29N 48°27' W 125°18'261456.1
2017-Aug-14 01:55N 52°20' W 128°22'2601380.1
2017-Aug-14 01:43N 48°25' W 125°27'2601124.9
2017-Aug-14 01:30N 52°20' W 128°22'26014605.8
2017-Aug-14 01:29N 48°24' W 125°31'4 9.1
2017-Aug-14 01:00N 48°23' W 125°37'2603030.5
2017-Aug-14 00:54N 52°19' W 128°29'260635.4
2017-Aug-14 00:30N 48°22' W 125°44'26213649.9
2017-Aug-14 00:29N 52°21' W 128°28'261505.4
2017-Aug-13 23:58N 48°20' W 125°51'2611235.7
2017-Aug-13 23:45N 52°21' W 128°29'1 5.5
2017-Aug-13 23:30N 52°20' W 128°29'25916098.0
2017-Aug-13 23:29N 48°19' W 125°57'259515.9
2017-Aug-13 22:59N 52°20' W 128°29'1 2.4
2017-Aug-13 22:31N 52°21' W 128°29'0 0.2
2017-Aug-13 21:56N 52°21' W 128°29'1 2.8
2017-Aug-13 21:28N 52°19' W 128°29'2 4.2
2017-Aug-13 21:00N 52°21' W 128°29'0 0.3
2017-Aug-13 20:29N 52°22' W 128°29'1 1.5
2017-Aug-13 20:00N 52°21' W 128°30'1 1.3
2017-Aug-13 19:30N 52°22' W 128°30'0 0.6
2017-Aug-13 19:00N 52°22' W 128°30'1 1.7
2017-Aug-13 18:18N 52°23' W 128°30'0 1.0
2017-Aug-13 17:53N 52°23' W 128°30'0 0.9
2017-Aug-13 17:28N 52°23' W 128°30'1 3.3
2017-Aug-13 17:00N 52°23' W 128°28'0 0.9
2017-Aug-13 16:30N 52°23' W 128°28'3 5.2
2017-Aug-13 16:01N 52°20' W 128°29'1 1.3
2017-Aug-13 15:30N 52°21' W 128°29'1 2.4
2017-Aug-13 14:59N 52°20' W 128°29'0 0.3
2017-Aug-13 14:31N 52°20' W 128°29'1 1.9
2017-Aug-13 13:59N 52°21' W 128°30'5 9.4
2017-Aug-13 13:28N 52°25' W 128°34'6 0.6
2017-Aug-13 03:29N 52°29' W 128°40'5 9.7
2017-Aug-13 03:00N 52°26' W 128°35'5 9.4
2017-Aug-13 02:28N 52°22' W 128°30'2 4.4
2017-Aug-13 02:00N 52°24' W 128°30'3 5.3
2017-Aug-13 01:28N 52°21' W 128°30'3 5.4
2017-Aug-13 00:57N 52°24' W 128°30'1 2.9
2017-Aug-13 00:30N 52°22' W 128°29'0 0.1
2017-Aug-12 23:46N 52°22' W 128°29'0 1.6
2017-Aug-12 23:29N 52°23' W 128°29'1 1.3
2017-Aug-12 22:57N 52°23' W 128°29'3 6.4
2017-Aug-12 22:30N 52°20' W 128°30'3 5.6
2017-Aug-12 22:00N 52°18' W 128°27'3 5.0
2017-Aug-12 21:22N 52°21' W 128°29'2 6.2
2017-Aug-12 21:00N 52°21' W 128°26'1 1.3
2017-Aug-12 20:30N 52°21' W 128°27'0 0.9
2017-Aug-12 20:00N 52°21' W 128°27'1 1.9
2017-Aug-12 19:25N 52°21' W 128°26'2 6.0
2017-Aug-12 19:01N 52°21' W 128°30'3 5.9
2017-Aug-12 18:30N 52°22' W 128°25'3 3.8
2017-Aug-12 17:43N 52°22' W 128°30'2 6.1
2017-Aug-12 17:21N 52°24' W 128°29'3 6.4
2017-Aug-12 16:53N 52°21' W 128°30'2 5.9
2017-Aug-12 16:30N 52°19' W 128°29'1 1.4
2017-Aug-12 15:57N 52°18' W 128°29'4 8.9
2017-Aug-12 15:30N 52°15' W 128°33'510.1
2017-Aug-12 14:57N 52°11' W 128°39'5 9.9
2017-Aug-12 14:29N 52°08' W 128°44'5 9.8
2017-Aug-12 14:00N 52°04' W 128°50'7 6.2
2017-Aug-12 12:50N 52°04' W 129°02'7 6.7
2017-Aug-12 11:50N 52°04' W 128°51'0 0.2
2017-Aug-12 09:59N 52°04' W 128°51'4 7.1
2017-Aug-12 09:25N 52°04' W 128°57'3 7.6
2017-Aug-12 09:00N 52°04' W 129°02'7 6.8
2017-Aug-12 07:55N 52°04' W 128°50'4 9.2
2017-Aug-12 07:29N 52°07' W 128°45'510.0
2017-Aug-12 07:00N 52°10' W 128°39'510.1
2017-Aug-12 06:30N 52°13' W 128°32'5 9.8
2017-Aug-12 05:59N 52°15' W 128°25'510.6
2017-Aug-12 05:30N 52°15' W 128°17'4 8.1
2017-Aug-12 05:01N 52°15' W 128°10'2 3.6
2017-Aug-12 04:30N 52°16' W 128°08'1 2.4
2017-Aug-12 03:59N 52°16' W 128°10'0 0.9
2017-Aug-12 03:30N 52°16' W 128°09'3 5.3
2017-Aug-12 03:00N 52°18' W 128°06'2 3.0
2017-Aug-12 02:18N 52°19' W 128°03'2 5.2
2017-Aug-12 02:00N 52°18' W 128°05'2 3.9
2017-Aug-12 01:30N 52°16' W 128°07'0 0.6
2017-Aug-12 01:00N 52°17' W 128°07'1 1.5
2017-Aug-12 00:30N 52°17' W 128°06'0 0.7
2017-Aug-12 00:00N 52°17' W 128°06'0 0.7
2017-Aug-11 23:30N 52°17' W 128°07'2 4.6
2017-Aug-11 23:00N 52°15' W 128°10'1 1.6
2017-Aug-11 22:28N 52°15' W 128°11'2 3.5
2017-Aug-11 21:58N 52°17' W 128°12'1 2.8
2017-Aug-11 21:29N 52°16' W 128°10'2 3.6
2017-Aug-11 21:00N 52°17' W 128°13'1 2.5
2017-Aug-11 20:27N 52°16' W 128°11'1 1.1
2017-Aug-11 19:56N 52°15' W 128°11'0 0.7
2017-Aug-11 19:29N 52°16' W 128°11'1 2.5
2017-Aug-11 18:57N 52°16' W 128°13'2 4.2
2017-Aug-11 18:30N 52°15' W 128°10'142466.7
2017-Aug-11 18:12N 50°18' W 130°18'1 3.2
2017-Aug-11 17:54N 50°18' W 130°16'139816.2
2017-Aug-11 17:44N 52°11' W 128°07'1 3.0
2017-Aug-11 17:29N 52°10' W 128°06'1 2.5
2017-Aug-11 16:56N 52°11' W 128°06'2 5.5
2017-Aug-11 16:29N 52°13' W 128°09'2 4.6
2017-Aug-11 15:59N 52°14' W 128°12'5 9.4
2017-Aug-11 15:29N 52°15' W 128°20'5 9.4
2017-Aug-11 15:00N 52°15' W 128°27'510.1
2017-Aug-11 14:30N 52°12' W 128°34'1010.2
2017-Aug-11 13:30N 52°06' W 128°47'8 8.4
2017-Aug-11 12:34N 52°05' W 128°60'1 7.9
2017-Aug-11 12:30N 52°05' W 129°01'6 6.0
2017-Aug-11 11:26N 52°05' W 128°50'4 8.4
2017-Aug-11 11:00N 52°05' W 128°56'4 2.6
2017-Aug-11 09:38N 52°05' W 128°51'1 7.0
2017-Aug-11 09:25N 52°05' W 128°53'3 8.1
2017-Aug-11 09:00N 52°05' W 128°58'5 3.8
2017-Aug-11 07:47N 52°05' W 128°51'2 6.5
2017-Aug-11 07:30N 52°05' W 128°54'4 8.0
2017-Aug-11 06:59N 52°06' W 129°00'15 7.4
2017-Aug-11 04:57N 52°04' W 128°36'4 9.5
2017-Aug-11 04:30N 52°05' W 128°29'2 4.1
2017-Aug-11 04:00N 52°06' W 128°27'0 0.4
2017-Aug-11 03:30N 52°06' W 128°27'1 2.0
2017-Aug-11 03:00N 52°07' W 128°28'1 2.7
2017-Aug-11 02:31N 52°06' W 128°26'2 4.3
2017-Aug-11 02:00N 52°07' W 128°28'2 3.5
2017-Aug-11 01:30N 52°06' W 128°26'1 2.5
2017-Aug-11 00:59N 52°05' W 128°27'3 6.2
2017-Aug-11 00:30N 52°08' W 128°28'2 3.4
2017-Aug-11 00:00N 52°06' W 128°27'1 1.8
2017-Aug-10 23:31N 52°07' W 128°27'1 2.7
2017-Aug-10 23:00N 52°07' W 128°25'1 2.9
2017-Aug-10 22:30N 52°07' W 128°27'0 0.9
2017-Aug-10 22:00N 52°08' W 128°27'1 2.9
2017-Aug-10 21:30N 52°06' W 128°26'1 2.5
2017-Aug-10 21:00N 52°07' W 128°25'4 8.8
2017-Aug-10 20:30N 52°04' W 128°31'8 9.8
2017-Aug-10 19:43N 52°05' W 128°43'310.5
2017-Aug-10 19:25N 52°06' W 128°48'7 5.5
2017-Aug-10 18:03N 52°06' W 129°00'1 7.2
2017-Aug-10 17:54N 52°06' W 129°02'0 0.3
2017-Aug-10 17:22N 52°06' W 129°02'7 7.1
2017-Aug-10 16:20N 52°06' W 128°50'5 7.8
2017-Aug-10 15:42N 52°06' W 128°58'4 1.4
2017-Aug-10 12:30N 52°07' W 128°51'3 5.7
2017-Aug-10 12:00N 52°07' W 128°56'2 1.4
2017-Aug-10 10:43N 52°07' W 128°53'2 7.4
2017-Aug-10 10:31N 52°07' W 128°50'6 8.0
2017-Aug-10 09:44N 52°07' W 129°00'4 3.5
2017-Aug-10 08:34N 52°07' W 128°54'2 7.6
2017-Aug-10 08:18N 52°07' W 128°50'2 7.3
2017-Aug-10 08:00N 52°07' W 128°54'2 1.3
2017-Aug-10 06:21N 52°08' W 128°50'2 6.8
2017-Aug-10 05:59N 52°08' W 128°54'3 6.8
2017-Aug-10 05:30N 52°08' W 128°60'6 1.1
2017-Aug-10 00:05N 52°09' W 128°50'2 5.7
2017-Aug-09 23:39N 52°09' W 128°54'2 1.0
2017-Aug-09 22:04N 52°09' W 128°52'1 8.2
2017-Aug-09 21:53N 52°09' W 128°54'3 7.9
2017-Aug-09 21:30N 52°09' W 128°59'4 3.0
2017-Aug-09 20:06N 52°09' W 128°52'2 8.1
2017-Aug-09 19:49N 52°09' W 128°56'1 0.2
2017-Aug-09 16:00N 52°10' W 128°55'2 1.2
2017-Aug-09 14:30N 52°10' W 128°52'5 6.7
2017-Aug-09 13:49N 52°10' W 128°59'0 0.3
2017-Aug-09 13:15N 52°10' W 128°60'4 5.7
2017-Aug-09 12:28N 52°10' W 128°52'1 1.3
2017-Aug-09 12:00N 52°10' W 128°53'4 8.0
2017-Aug-09 11:30N 52°10' W 128°60'0 0.5
2017-Aug-09 10:59N 52°11' W 128°59'3 5.8
2017-Aug-09 10:30N 52°11' W 128°55'3 5.6
2017-Aug-09 10:00N 52°11' W 128°50'4 8.0
2017-Aug-09 09:30N 52°11' W 128°57'2 2.7
2017-Aug-09 08:47N 52°11' W 128°60'2 5.3
2017-Aug-09 08:29N 52°11' W 128°57'3 5.8
2017-Aug-09 07:54N 52°11' W 128°52'5 9.1
2017-Aug-09 07:19N 52°13' W 128°44'310.0
2017-Aug-09 07:00N 52°15' W 128°40'5 9.7
2017-Aug-09 06:30N 52°19' W 128°35'5 9.8
2017-Aug-09 06:00N 52°23' W 128°32'5 9.4
2017-Aug-09 05:30N 52°27' W 128°27'7 1.0
2017-Aug-08 22:13N 52°27' W 128°14'0 2.1
2017-Aug-08 21:59N 52°28' W 128°15'4 4.7
2017-Aug-08 21:05N 52°32' W 128°16'5 1.4
2017-Aug-08 17:46N 52°27' W 128°15'  

Dump ship's entire track history